sensor_id;sensor_type;location;lat;lon;timestamp;P1;durP1;ratioP1;P2;durP2;ratioP2
44816;SDS011;30529;53.570;9.964;2023-07-02T00:01:45;5.90;;;1.73;;
44816;SDS011;30529;53.570;9.964;2023-07-02T00:04:12;5.37;;;2.00;;
44816;SDS011;30529;53.570;9.964;2023-07-02T00:06:44;4.93;;;1.80;;
44816;SDS011;30529;53.570;9.964;2023-07-02T00:09:12;5.57;;;1.60;;
44816;SDS011;30529;53.570;9.964;2023-07-02T00:11:38;5.67;;;1.80;;
44816;SDS011;30529;53.570;9.964;2023-07-02T00:14:05;6.70;;;1.60;;
44816;SDS011;30529;53.570;9.964;2023-07-02T00:16:32;5.97;;;1.80;;
44816;SDS011;30529;53.570;9.964;2023-07-02T00:18:59;5.53;;;2.20;;
44816;SDS011;30529;53.570;9.964;2023-07-02T00:21:28;6.87;;;2.50;;
44816;SDS011;30529;53.570;9.964;2023-07-02T00:23:54;7.40;;;2.30;;
44816;SDS011;30529;53.570;9.964;2023-07-02T00:26:24;5.33;;;2.40;;
44816;SDS011;30529;53.570;9.964;2023-07-02T00:28:51;7.20;;;2.40;;
44816;SDS011;30529;53.570;9.964;2023-07-02T00:31:18;4.20;;;1.60;;
44816;SDS011;30529;53.570;9.964;2023-07-02T00:33:44;5.27;;;1.67;;
44816;SDS011;30529;53.570;9.964;2023-07-02T00:36:10;7.33;;;2.63;;
44816;SDS011;30529;53.570;9.964;2023-07-02T00:38:44;3.47;;;1.80;;
44816;SDS011;30529;53.570;9.964;2023-07-02T00:41:12;4.03;;;1.80;;
44816;SDS011;30529;53.570;9.964;2023-07-02T00:43:39;4.40;;;2.83;;
44816;SDS011;30529;53.570;9.964;2023-07-02T00:46:15;3.77;;;1.70;;
44816;SDS011;30529;53.570;9.964;2023-07-02T00:48:43;3.97;;;1.73;;
44816;SDS011;30529;53.570;9.964;2023-07-02T00:51:17;4.60;;;2.10;;
44816;SDS011;30529;53.570;9.964;2023-07-02T00:53:46;6.97;;;2.13;;
44816;SDS011;30529;53.570;9.964;2023-07-02T00:56:13;6.13;;;2.10;;
44816;SDS011;30529;53.570;9.964;2023-07-02T00:58:40;5.87;;;2.00;;
44816;SDS011;30529;53.570;9.964;2023-07-02T01:03:51;6.40;;;1.97;;
44816;SDS011;30529;53.570;9.964;2023-07-02T01:06:28;7.20;;;2.73;;
44816;SDS011;30529;53.570;9.964;2023-07-02T01:09:00;5.67;;;1.97;;
44816;SDS011;30529;53.570;9.964;2023-07-02T01:11:28;3.80;;;2.10;;
44816;SDS011;30529;53.570;9.964;2023-07-02T01:13:59;6.63;;;2.13;;
44816;SDS011;30529;53.570;9.964;2023-07-02T01:16:29;6.20;;;2.10;;
44816;SDS011;30529;53.570;9.964;2023-07-02T01:18:59;5.53;;;2.43;;
44816;SDS011;30529;53.570;9.964;2023-07-02T01:21:30;4.07;;;2.00;;
44816;SDS011;30529;53.570;9.964;2023-07-02T01:23:58;7.80;;;2.30;;
44816;SDS011;30529;53.570;9.964;2023-07-02T01:26:29;4.40;;;2.10;;
44816;SDS011;30529;53.570;9.964;2023-07-02T01:28:59;6.73;;;2.37;;
44816;SDS011;30529;53.570;9.964;2023-07-02T01:31:26;3.83;;;2.10;;
44816;SDS011;30529;53.570;9.964;2023-07-02T01:33:52;7.83;;;2.47;;
44816;SDS011;30529;53.570;9.964;2023-07-02T01:36:18;5.67;;;2.70;;
44816;SDS011;30529;53.570;9.964;2023-07-02T01:38:44;5.57;;;2.13;;
44816;SDS011;30529;53.570;9.964;2023-07-02T01:41:10;5.23;;;1.87;;
44816;SDS011;30529;53.570;9.964;2023-07-02T01:43:35;6.60;;;2.33;;
44816;SDS011;30529;53.570;9.964;2023-07-02T01:46:05;5.67;;;2.30;;
44816;SDS011;30529;53.570;9.964;2023-07-02T01:48:31;4.33;;;2.50;;
44816;SDS011;30529;53.570;9.964;2023-07-02T01:50:56;6.33;;;2.20;;
44816;SDS011;30529;53.570;9.964;2023-07-02T01:53:22;5.93;;;2.13;;
44816;SDS011;30529;53.570;9.964;2023-07-02T01:55:48;6.00;;;2.43;;
44816;SDS011;30529;53.570;9.964;2023-07-02T01:58:14;4.17;;;1.93;;
44816;SDS011;30529;53.570;9.964;2023-07-02T02:00:40;4.33;;;1.93;;
44816;SDS011;30529;53.570;9.964;2023-07-02T02:03:06;5.27;;;2.13;;
44816;SDS011;30529;53.570;9.964;2023-07-02T02:05:32;7.97;;;2.70;;
44816;SDS011;30529;53.570;9.964;2023-07-02T02:07:58;10.40;;;2.47;;
44816;SDS011;30529;53.570;9.964;2023-07-02T02:10:24;5.27;;;2.23;;
44816;SDS011;30529;53.570;9.964;2023-07-02T02:12:50;5.97;;;2.80;;
44816;SDS011;30529;53.570;9.964;2023-07-02T02:15:16;6.83;;;2.97;;
44816;SDS011;30529;53.570;9.964;2023-07-02T02:17:42;4.67;;;2.27;;
44816;SDS011;30529;53.570;9.964;2023-07-02T02:20:08;7.90;;;2.63;;
44816;SDS011;30529;53.570;9.964;2023-07-02T02:22:34;9.20;;;2.40;;
44816;SDS011;30529;53.570;9.964;2023-07-02T02:25:00;6.90;;;3.07;;
44816;SDS011;30529;53.570;9.964;2023-07-02T02:27:26;4.97;;;2.57;;
44816;SDS011;30529;53.570;9.964;2023-07-02T02:29:52;12.73;;;3.20;;
44816;SDS011;30529;53.570;9.964;2023-07-02T02:32:18;6.80;;;2.50;;
44816;SDS011;30529;53.570;9.964;2023-07-02T02:34:46;4.27;;;2.70;;
44816;SDS011;30529;53.570;9.964;2023-07-02T02:37:12;6.73;;;3.20;;
44816;SDS011;30529;53.570;9.964;2023-07-02T02:39:38;10.47;;;3.13;;
44816;SDS011;30529;53.570;9.964;2023-07-02T02:42:04;7.57;;;2.70;;
44816;SDS011;30529;53.570;9.964;2023-07-02T02:44:30;6.00;;;3.10;;
44816;SDS011;30529;53.570;9.964;2023-07-02T02:46:57;9.87;;;3.10;;
44816;SDS011;30529;53.570;9.964;2023-07-02T02:49:23;7.80;;;3.10;;
44816;SDS011;30529;53.570;9.964;2023-07-02T02:51:49;5.87;;;2.53;;
44816;SDS011;30529;53.570;9.964;2023-07-02T02:54:15;6.67;;;2.93;;
44816;SDS011;30529;53.570;9.964;2023-07-02T02:56:41;5.23;;;2.33;;
44816;SDS011;30529;53.570;9.964;2023-07-02T02:59:07;4.63;;;3.03;;
44816;SDS011;30529;53.570;9.964;2023-07-02T03:01:33;7.57;;;3.07;;
44816;SDS011;30529;53.570;9.964;2023-07-02T03:03:59;6.13;;;3.10;;
44816;SDS011;30529;53.570;9.964;2023-07-02T03:06:25;7.83;;;2.83;;
44816;SDS011;30529;53.570;9.964;2023-07-02T03:08:52;4.77;;;2.70;;
44816;SDS011;30529;53.570;9.964;2023-07-02T03:11:18;5.67;;;3.10;;
44816;SDS011;30529;53.570;9.964;2023-07-02T03:13:43;12.30;;;3.67;;
44816;SDS011;30529;53.570;9.964;2023-07-02T03:16:09;7.47;;;2.73;;
44816;SDS011;30529;53.570;9.964;2023-07-02T03:18:35;6.70;;;2.70;;
44816;SDS011;30529;53.570;9.964;2023-07-02T03:21:01;5.80;;;2.77;;
44816;SDS011;30529;53.570;9.964;2023-07-02T03:23:27;10.17;;;2.80;;
44816;SDS011;30529;53.570;9.964;2023-07-02T03:25:53;5.97;;;2.83;;
44816;SDS011;30529;53.570;9.964;2023-07-02T03:28:19;6.80;;;2.83;;
44816;SDS011;30529;53.570;9.964;2023-07-02T03:30:45;4.57;;;2.87;;
44816;SDS011;30529;53.570;9.964;2023-07-02T03:33:11;7.33;;;2.60;;
44816;SDS011;30529;53.570;9.964;2023-07-02T03:35:37;4.80;;;2.73;;
44816;SDS011;30529;53.570;9.964;2023-07-02T03:38:04;7.77;;;2.80;;
44816;SDS011;30529;53.570;9.964;2023-07-02T03:40:31;7.93;;;3.10;;
44816;SDS011;30529;53.570;9.964;2023-07-02T03:42:57;7.00;;;3.20;;
44816;SDS011;30529;53.570;9.964;2023-07-02T03:45:23;7.10;;;3.13;;
44816;SDS011;30529;53.570;9.964;2023-07-02T03:47:49;8.63;;;3.67;;
44816;SDS011;30529;53.570;9.964;2023-07-02T03:50:15;7.20;;;3.17;;
44816;SDS011;30529;53.570;9.964;2023-07-02T03:52:41;6.67;;;3.40;;
44816;SDS011;30529;53.570;9.964;2023-07-02T03:55:07;7.23;;;3.73;;
44816;SDS011;30529;53.570;9.964;2023-07-02T03:57:33;9.67;;;3.27;;
44816;SDS011;30529;53.570;9.964;2023-07-02T03:59:59;10.93;;;4.13;;
44816;SDS011;30529;53.570;9.964;2023-07-02T04:02:25;9.40;;;3.73;;
44816;SDS011;30529;53.570;9.964;2023-07-02T04:04:51;6.70;;;3.40;;
44816;SDS011;30529;53.570;9.964;2023-07-02T04:07:17;10.10;;;4.30;;
44816;SDS011;30529;53.570;9.964;2023-07-02T04:09:43;8.53;;;3.70;;
44816;SDS011;30529;53.570;9.964;2023-07-02T04:12:09;12.93;;;3.27;;
44816;SDS011;30529;53.570;9.964;2023-07-02T04:14:35;9.93;;;3.43;;
44816;SDS011;30529;53.570;9.964;2023-07-02T04:17:01;8.73;;;3.83;;
44816;SDS011;30529;53.570;9.964;2023-07-02T04:19:29;9.20;;;3.70;;
44816;SDS011;30529;53.570;9.964;2023-07-02T04:21:54;12.73;;;4.20;;
44816;SDS011;30529;53.570;9.964;2023-07-02T04:24:20;10.20;;;4.23;;
44816;SDS011;30529;53.570;9.964;2023-07-02T04:26:46;7.63;;;3.63;;
44816;SDS011;30529;53.570;9.964;2023-07-02T04:29:12;8.20;;;3.80;;
44816;SDS011;30529;53.570;9.964;2023-07-02T04:31:38;9.67;;;3.50;;
44816;SDS011;30529;53.570;9.964;2023-07-02T04:34:04;9.53;;;3.87;;
44816;SDS011;30529;53.570;9.964;2023-07-02T04:36:31;11.87;;;4.23;;
44816;SDS011;30529;53.570;9.964;2023-07-02T04:38:57;8.50;;;3.57;;
44816;SDS011;30529;53.570;9.964;2023-07-02T04:41:23;11.10;;;3.97;;
44816;SDS011;30529;53.570;9.964;2023-07-02T04:43:49;8.10;;;3.77;;
44816;SDS011;30529;53.570;9.964;2023-07-02T04:46:15;13.20;;;4.43;;
44816;SDS011;30529;53.570;9.964;2023-07-02T04:48:43;10.03;;;4.47;;
44816;SDS011;30529;53.570;9.964;2023-07-02T04:51:09;13.67;;;4.57;;
44816;SDS011;30529;53.570;9.964;2023-07-02T04:53:34;10.97;;;4.90;;
44816;SDS011;30529;53.570;9.964;2023-07-02T04:56:03;10.03;;;4.50;;
44816;SDS011;30529;53.570;9.964;2023-07-02T04:58:29;12.47;;;4.53;;
44816;SDS011;30529;53.570;9.964;2023-07-02T05:00:55;13.70;;;4.27;;
44816;SDS011;30529;53.570;9.964;2023-07-02T05:03:21;12.07;;;4.40;;
44816;SDS011;30529;53.570;9.964;2023-07-02T05:05:47;12.93;;;4.77;;
44816;SDS011;30529;53.570;9.964;2023-07-02T05:08:12;12.93;;;4.43;;
44816;SDS011;30529;53.570;9.964;2023-07-02T05:10:39;10.20;;;4.63;;
44816;SDS011;30529;53.570;9.964;2023-07-02T05:13:05;10.27;;;4.37;;
44816;SDS011;30529;53.570;9.964;2023-07-02T05:15:31;11.73;;;5.00;;
44816;SDS011;30529;53.570;9.964;2023-07-02T05:17:57;12.23;;;5.33;;
44816;SDS011;30529;53.570;9.964;2023-07-02T05:20:23;14.33;;;5.07;;
44816;SDS011;30529;53.570;9.964;2023-07-02T05:22:49;14.90;;;5.23;;
44816;SDS011;30529;53.570;9.964;2023-07-02T05:25:15;13.53;;;5.43;;
44816;SDS011;30529;53.570;9.964;2023-07-02T05:27:41;16.47;;;5.50;;
44816;SDS011;30529;53.570;9.964;2023-07-02T05:30:07;13.73;;;4.87;;
44816;SDS011;30529;53.570;9.964;2023-07-02T05:32:33;11.07;;;4.80;;
44816;SDS011;30529;53.570;9.964;2023-07-02T05:35:00;19.33;;;5.50;;
44816;SDS011;30529;53.570;9.964;2023-07-02T05:37:26;11.63;;;5.10;;
44816;SDS011;30529;53.570;9.964;2023-07-02T05:39:51;13.13;;;5.60;;
44816;SDS011;30529;53.570;9.964;2023-07-02T05:42:18;14.30;;;5.70;;
44816;SDS011;30529;53.570;9.964;2023-07-02T05:44:44;14.57;;;5.17;;
44816;SDS011;30529;53.570;9.964;2023-07-02T05:47:10;12.00;;;5.40;;
44816;SDS011;30529;53.570;9.964;2023-07-02T05:49:36;15.43;;;6.17;;
44816;SDS011;30529;53.570;9.964;2023-07-02T05:52:02;12.90;;;5.97;;
44816;SDS011;30529;53.570;9.964;2023-07-02T05:54:28;14.83;;;5.60;;
44816;SDS011;30529;53.570;9.964;2023-07-02T05:56:54;17.97;;;6.23;;
44816;SDS011;30529;53.570;9.964;2023-07-02T05:59:20;15.07;;;5.70;;
44816;SDS011;30529;53.570;9.964;2023-07-02T06:01:46;16.00;;;6.37;;
44816;SDS011;30529;53.570;9.964;2023-07-02T06:04:12;13.03;;;5.30;;
44816;SDS011;30529;53.570;9.964;2023-07-02T06:06:38;15.03;;;5.57;;
44816;SDS011;30529;53.570;9.964;2023-07-02T06:09:03;16.30;;;6.47;;
44816;SDS011;30529;53.570;9.964;2023-07-02T06:11:29;16.90;;;5.97;;
44816;SDS011;30529;53.570;9.964;2023-07-02T06:13:55;19.53;;;6.50;;
44816;SDS011;30529;53.570;9.964;2023-07-02T06:16:21;17.53;;;6.00;;
44816;SDS011;30529;53.570;9.964;2023-07-02T06:18:47;16.77;;;5.63;;
44816;SDS011;30529;53.570;9.964;2023-07-02T06:21:13;17.30;;;5.53;;
44816;SDS011;30529;53.570;9.964;2023-07-02T06:23:40;16.63;;;6.60;;
44816;SDS011;30529;53.570;9.964;2023-07-02T06:26:09;14.97;;;6.33;;
44816;SDS011;30529;53.570;9.964;2023-07-02T06:28:36;14.57;;;6.00;;
44816;SDS011;30529;53.570;9.964;2023-07-02T06:31:04;16.03;;;5.77;;
44816;SDS011;30529;53.570;9.964;2023-07-02T06:33:30;17.87;;;6.47;;
44816;SDS011;30529;53.570;9.964;2023-07-02T06:35:56;14.23;;;5.53;;
44816;SDS011;30529;53.570;9.964;2023-07-02T06:38:21;15.80;;;6.53;;
44816;SDS011;30529;53.570;9.964;2023-07-02T06:40:48;18.87;;;6.43;;
44816;SDS011;30529;53.570;9.964;2023-07-02T06:43:14;20.17;;;6.40;;
44816;SDS011;30529;53.570;9.964;2023-07-02T06:45:40;20.83;;;7.00;;
44816;SDS011;30529;53.570;9.964;2023-07-02T06:48:06;13.13;;;6.27;;
44816;SDS011;30529;53.570;9.964;2023-07-02T06:50:32;15.50;;;6.07;;
44816;SDS011;30529;53.570;9.964;2023-07-02T06:52:58;19.80;;;6.13;;
44816;SDS011;30529;53.570;9.964;2023-07-02T06:55:24;15.57;;;6.30;;
44816;SDS011;30529;53.570;9.964;2023-07-02T06:57:49;16.33;;;6.43;;
44816;SDS011;30529;53.570;9.964;2023-07-02T07:00:15;17.87;;;6.13;;
44816;SDS011;30529;53.570;9.964;2023-07-02T07:02:41;18.17;;;7.27;;
44816;SDS011;30529;53.570;9.964;2023-07-02T07:05:07;17.27;;;6.03;;
44816;SDS011;30529;53.570;9.964;2023-07-02T07:07:35;18.97;;;6.60;;
44816;SDS011;30529;53.570;9.964;2023-07-02T07:10:00;18.20;;;6.40;;
44816;SDS011;30529;53.570;9.964;2023-07-02T07:12:27;17.70;;;6.63;;
44816;SDS011;30529;53.570;9.964;2023-07-02T07:14:52;15.70;;;6.07;;
44816;SDS011;30529;53.570;9.964;2023-07-02T07:17:18;14.30;;;6.00;;
44816;SDS011;30529;53.570;9.964;2023-07-02T07:19:44;15.20;;;5.93;;
44816;SDS011;30529;53.570;9.964;2023-07-02T07:22:10;16.03;;;6.77;;
44816;SDS011;30529;53.570;9.964;2023-07-02T07:24:36;21.60;;;6.43;;
44816;SDS011;30529;53.570;9.964;2023-07-02T07:27:02;14.67;;;6.50;;
44816;SDS011;30529;53.570;9.964;2023-07-02T07:29:28;15.57;;;5.90;;
44816;SDS011;30529;53.570;9.964;2023-07-02T07:31:54;14.70;;;6.10;;
44816;SDS011;30529;53.570;9.964;2023-07-02T07:34:20;14.60;;;5.93;;
44816;SDS011;30529;53.570;9.964;2023-07-02T07:36:46;17.07;;;6.50;;
44816;SDS011;30529;53.570;9.964;2023-07-02T07:39:12;16.90;;;5.77;;
44816;SDS011;30529;53.570;9.964;2023-07-02T07:41:38;12.20;;;6.27;;
44816;SDS011;30529;53.570;9.964;2023-07-02T07:44:04;13.73;;;6.13;;
44816;SDS011;30529;53.570;9.964;2023-07-02T07:46:29;15.37;;;6.20;;
44816;SDS011;30529;53.570;9.964;2023-07-02T07:48:55;16.40;;;6.40;;
44816;SDS011;30529;53.570;9.964;2023-07-02T07:51:39;16.80;;;5.80;;
44816;SDS011;30529;53.570;9.964;2023-07-02T07:54:05;12.17;;;6.33;;
44816;SDS011;30529;53.570;9.964;2023-07-02T07:56:31;22.23;;;7.70;;
44816;SDS011;30529;53.570;9.964;2023-07-02T07:58:57;18.73;;;7.60;;
44816;SDS011;30529;53.570;9.964;2023-07-02T08:01:25;14.37;;;6.40;;
44816;SDS011;30529;53.570;9.964;2023-07-02T08:03:51;20.73;;;6.60;;
44816;SDS011;30529;53.570;9.964;2023-07-02T08:06:17;16.17;;;5.87;;
44816;SDS011;30529;53.570;9.964;2023-07-02T08:08:43;14.03;;;6.23;;
44816;SDS011;30529;53.570;9.964;2023-07-02T08:11:09;14.23;;;5.90;;
44816;SDS011;30529;53.570;9.964;2023-07-02T08:13:36;13.77;;;5.60;;
44816;SDS011;30529;53.570;9.964;2023-07-02T08:16:02;13.63;;;5.83;;
44816;SDS011;30529;53.570;9.964;2023-07-02T08:18:27;14.27;;;5.73;;
44816;SDS011;30529;53.570;9.964;2023-07-02T08:20:53;13.63;;;4.93;;
44816;SDS011;30529;53.570;9.964;2023-07-02T08:23:19;11.93;;;5.23;;
44816;SDS011;30529;53.570;9.964;2023-07-02T08:25:46;12.73;;;5.20;;
44816;SDS011;30529;53.570;9.964;2023-07-02T08:28:11;11.03;;;5.00;;
44816;SDS011;30529;53.570;9.964;2023-07-02T08:30:38;13.87;;;6.03;;
44816;SDS011;30529;53.570;9.964;2023-07-02T08:33:03;11.50;;;5.50;;
44816;SDS011;30529;53.570;9.964;2023-07-02T08:35:29;8.67;;;4.53;;
44816;SDS011;30529;53.570;9.964;2023-07-02T08:37:55;16.47;;;6.70;;
44816;SDS011;30529;53.570;9.964;2023-07-02T08:40:22;11.00;;;4.93;;
44816;SDS011;30529;53.570;9.964;2023-07-02T08:42:48;10.67;;;3.97;;
44816;SDS011;30529;53.570;9.964;2023-07-02T08:45:16;13.27;;;6.13;;
44816;SDS011;30529;53.570;9.964;2023-07-02T08:47:43;9.43;;;4.33;;
44816;SDS011;30529;53.570;9.964;2023-07-02T08:50:11;9.30;;;4.63;;
44816;SDS011;30529;53.570;9.964;2023-07-02T08:52:38;11.60;;;4.47;;
44816;SDS011;30529;53.570;9.964;2023-07-02T08:55:04;10.67;;;3.93;;
44816;SDS011;30529;53.570;9.964;2023-07-02T08:57:30;13.97;;;4.97;;
44816;SDS011;30529;53.570;9.964;2023-07-02T08:59:56;10.33;;;4.20;;
44816;SDS011;30529;53.570;9.964;2023-07-02T09:02:32;12.10;;;3.93;;
44816;SDS011;30529;53.570;9.964;2023-07-02T09:04:59;10.67;;;3.90;;
44816;SDS011;30529;53.570;9.964;2023-07-02T09:07:26;7.47;;;3.63;;
44816;SDS011;30529;53.570;9.964;2023-07-02T09:09:52;11.83;;;4.57;;
44816;SDS011;30529;53.570;9.964;2023-07-02T09:12:26;9.77;;;4.07;;
44816;SDS011;30529;53.570;9.964;2023-07-02T09:14:54;9.33;;;4.10;;
44816;SDS011;30529;53.570;9.964;2023-07-02T09:17:21;9.07;;;4.23;;
44816;SDS011;30529;53.570;9.964;2023-07-02T09:19:51;10.20;;;3.67;;
44816;SDS011;30529;53.570;9.964;2023-07-02T09:22:17;11.10;;;4.50;;
44816;SDS011;30529;53.570;9.964;2023-07-02T09:24:50;13.17;;;4.47;;
44816;SDS011;30529;53.570;9.964;2023-07-02T09:27:18;11.63;;;4.50;;
44816;SDS011;30529;53.570;9.964;2023-07-02T09:29:49;13.00;;;4.07;;
44816;SDS011;30529;53.570;9.964;2023-07-02T09:32:23;12.43;;;4.00;;
44816;SDS011;30529;53.570;9.964;2023-07-02T09:34:51;10.43;;;4.53;;
44816;SDS011;30529;53.570;9.964;2023-07-02T09:37:19;7.90;;;4.00;;
44816;SDS011;30529;53.570;9.964;2023-07-02T09:39:47;9.53;;;4.40;;
44816;SDS011;30529;53.570;9.964;2023-07-02T09:42:17;11.33;;;4.20;;
44816;SDS011;30529;53.570;9.964;2023-07-02T09:44:45;11.07;;;5.00;;
44816;SDS011;30529;53.570;9.964;2023-07-02T09:47:12;11.83;;;4.50;;
44816;SDS011;30529;53.570;9.964;2023-07-02T09:49:45;13.07;;;4.60;;
44816;SDS011;30529;53.570;9.964;2023-07-02T09:52:15;15.53;;;4.60;;
44816;SDS011;30529;53.570;9.964;2023-07-02T09:54:42;8.57;;;3.80;;
44816;SDS011;30529;53.570;9.964;2023-07-02T09:57:08;9.70;;;4.13;;
44816;SDS011;30529;53.570;9.964;2023-07-02T09:59:34;9.20;;;3.87;;
44816;SDS011;30529;53.570;9.964;2023-07-02T10:02:00;12.10;;;4.00;;
44816;SDS011;30529;53.570;9.964;2023-07-02T10:04:27;8.13;;;3.20;;
44816;SDS011;30529;53.570;9.964;2023-07-02T10:06:54;8.40;;;3.37;;
44816;SDS011;30529;53.570;9.964;2023-07-02T10:09:34;11.20;;;3.70;;
44816;SDS011;30529;53.570;9.964;2023-07-02T10:12:00;15.93;;;3.87;;
44816;SDS011;30529;53.570;9.964;2023-07-02T10:14:26;11.70;;;4.10;;
44816;SDS011;30529;53.570;9.964;2023-07-02T10:16:52;9.67;;;2.93;;
44816;SDS011;30529;53.570;9.964;2023-07-02T10:19:19;9.00;;;4.10;;
44816;SDS011;30529;53.570;9.964;2023-07-02T10:21:46;9.77;;;3.80;;
44816;SDS011;30529;53.570;9.964;2023-07-02T10:24:18;10.07;;;3.80;;
44816;SDS011;30529;53.570;9.964;2023-07-02T10:27:00;7.77;;;3.73;;
44816;SDS011;30529;53.570;9.964;2023-07-02T10:29:28;10.10;;;3.80;;
44816;SDS011;30529;53.570;9.964;2023-07-02T10:31:55;10.70;;;4.00;;
44816;SDS011;30529;53.570;9.964;2023-07-02T10:34:32;9.77;;;3.40;;
44816;SDS011;30529;53.570;9.964;2023-07-02T10:37:02;7.67;;;3.30;;
44816;SDS011;30529;53.570;9.964;2023-07-02T10:39:30;9.20;;;3.43;;
44816;SDS011;30529;53.570;9.964;2023-07-02T10:42:09;9.83;;;3.33;;
44816;SDS011;30529;53.570;9.964;2023-07-02T10:44:56;7.07;;;3.60;;
44816;SDS011;30529;53.570;9.964;2023-07-02T10:47:22;8.87;;;4.27;;
44816;SDS011;30529;53.570;9.964;2023-07-02T10:49:48;10.40;;;3.60;;
44816;SDS011;30529;53.570;9.964;2023-07-02T10:52:13;11.13;;;3.40;;
44816;SDS011;30529;53.570;9.964;2023-07-02T10:54:40;6.83;;;3.30;;
44816;SDS011;30529;53.570;9.964;2023-07-02T10:57:08;11.73;;;3.83;;
44816;SDS011;30529;53.570;9.964;2023-07-02T10:59:35;8.80;;;3.70;;
44816;SDS011;30529;53.570;9.964;2023-07-02T11:02:01;9.53;;;3.50;;
44816;SDS011;30529;53.570;9.964;2023-07-02T11:04:32;11.00;;;3.37;;
44816;SDS011;30529;53.570;9.964;2023-07-02T11:06:59;8.10;;;2.87;;
44816;SDS011;30529;53.570;9.964;2023-07-02T11:09:26;9.20;;;3.03;;
44816;SDS011;30529;53.570;9.964;2023-07-02T11:11:55;10.07;;;3.47;;
44816;SDS011;30529;53.570;9.964;2023-07-02T11:14:29;8.60;;;3.07;;
44816;SDS011;30529;53.570;9.964;2023-07-02T11:16:57;9.90;;;3.47;;
44816;SDS011;30529;53.570;9.964;2023-07-02T11:19:24;12.67;;;3.03;;
44816;SDS011;30529;53.570;9.964;2023-07-02T11:21:51;9.93;;;2.63;;
44816;SDS011;30529;53.570;9.964;2023-07-02T11:24:26;7.67;;;2.70;;
44816;SDS011;30529;53.570;9.964;2023-07-02T11:26:53;9.23;;;2.60;;
44816;SDS011;30529;53.570;9.964;2023-07-02T11:29:19;8.70;;;2.77;;
44816;SDS011;30529;53.570;9.964;2023-07-02T11:31:45;8.37;;;3.27;;
44816;SDS011;30529;53.570;9.964;2023-07-02T11:34:15;8.83;;;2.13;;
44816;SDS011;30529;53.570;9.964;2023-07-02T11:36:45;8.93;;;3.07;;
44816;SDS011;30529;53.570;9.964;2023-07-02T11:39:12;10.50;;;2.47;;
44816;SDS011;30529;53.570;9.964;2023-07-02T11:41:40;8.10;;;2.40;;
44816;SDS011;30529;53.570;9.964;2023-07-02T11:44:07;8.53;;;2.37;;
44816;SDS011;30529;53.570;9.964;2023-07-02T11:46:33;5.53;;;2.67;;
44816;SDS011;30529;53.570;9.964;2023-07-02T11:49:00;8.80;;;2.53;;
44816;SDS011;30529;53.570;9.964;2023-07-02T11:51:27;6.60;;;2.10;;
44816;SDS011;30529;53.570;9.964;2023-07-02T11:53:53;5.50;;;2.30;;
44816;SDS011;30529;53.570;9.964;2023-07-02T11:56:19;5.77;;;2.53;;
44816;SDS011;30529;53.570;9.964;2023-07-02T11:58:45;5.73;;;2.50;;
44816;SDS011;30529;53.570;9.964;2023-07-02T12:01:11;6.70;;;2.30;;
44816;SDS011;30529;53.570;9.964;2023-07-02T12:03:37;6.70;;;2.23;;
44816;SDS011;30529;53.570;9.964;2023-07-02T12:06:03;6.03;;;1.90;;
44816;SDS011;30529;53.570;9.964;2023-07-02T12:08:30;4.47;;;2.07;;
44816;SDS011;30529;53.570;9.964;2023-07-02T12:10:56;5.97;;;2.23;;
44816;SDS011;30529;53.570;9.964;2023-07-02T12:13:22;8.10;;;2.33;;
44816;SDS011;30529;53.570;9.964;2023-07-02T12:15:48;6.63;;;2.53;;
44816;SDS011;30529;53.570;9.964;2023-07-02T12:18:16;4.30;;;1.87;;
44816;SDS011;30529;53.570;9.964;2023-07-02T12:20:42;6.47;;;2.30;;
44816;SDS011;30529;53.570;9.964;2023-07-02T12:23:08;5.63;;;2.33;;
44816;SDS011;30529;53.570;9.964;2023-07-02T12:25:36;5.43;;;2.07;;
44816;SDS011;30529;53.570;9.964;2023-07-02T12:28:05;6.80;;;2.03;;
44816;SDS011;30529;53.570;9.964;2023-07-02T12:30:31;6.53;;;2.43;;
44816;SDS011;30529;53.570;9.964;2023-07-02T12:32:57;5.50;;;2.50;;
44816;SDS011;30529;53.570;9.964;2023-07-02T12:35:23;6.57;;;1.93;;
44816;SDS011;30529;53.570;9.964;2023-07-02T12:37:50;8.73;;;2.70;;
44816;SDS011;30529;53.570;9.964;2023-07-02T12:40:18;5.10;;;2.03;;
44816;SDS011;30529;53.570;9.964;2023-07-02T12:42:45;7.87;;;2.60;;
44816;SDS011;30529;53.570;9.964;2023-07-02T12:45:12;10.27;;;3.00;;
44816;SDS011;30529;53.570;9.964;2023-07-02T12:47:39;7.40;;;3.03;;
44816;SDS011;30529;53.570;9.964;2023-07-02T12:50:06;4.90;;;2.10;;
44816;SDS011;30529;53.570;9.964;2023-07-02T12:52:32;8.17;;;2.63;;
44816;SDS011;30529;53.570;9.964;2023-07-02T12:54:59;5.00;;;2.30;;
44816;SDS011;30529;53.570;9.964;2023-07-02T12:57:25;7.33;;;2.30;;
44816;SDS011;30529;53.570;9.964;2023-07-02T12:59:52;8.80;;;2.53;;
44816;SDS011;30529;53.570;9.964;2023-07-02T13:02:18;6.27;;;2.20;;
44816;SDS011;30529;53.570;9.964;2023-07-02T13:04:44;5.37;;;1.80;;
44816;SDS011;30529;53.570;9.964;2023-07-02T13:07:10;7.63;;;2.17;;
44816;SDS011;30529;53.570;9.964;2023-07-02T13:09:36;3.30;;;1.83;;
44816;SDS011;30529;53.570;9.964;2023-07-02T13:12:02;6.40;;;2.47;;
44816;SDS011;30529;53.570;9.964;2023-07-02T13:14:28;4.57;;;2.07;;
44816;SDS011;30529;53.570;9.964;2023-07-02T13:16:54;8.20;;;1.93;;
44816;SDS011;30529;53.570;9.964;2023-07-02T13:19:20;6.57;;;2.27;;
44816;SDS011;30529;53.570;9.964;2023-07-02T13:21:46;7.23;;;1.87;;
44816;SDS011;30529;53.570;9.964;2023-07-02T13:24:12;7.67;;;2.17;;
44816;SDS011;30529;53.570;9.964;2023-07-02T13:26:38;5.40;;;1.70;;
44816;SDS011;30529;53.570;9.964;2023-07-02T13:29:04;7.03;;;1.90;;
44816;SDS011;30529;53.570;9.964;2023-07-02T13:31:30;7.57;;;1.83;;
44816;SDS011;30529;53.570;9.964;2023-07-02T13:33:56;8.83;;;1.63;;
44816;SDS011;30529;53.570;9.964;2023-07-02T13:36:21;6.20;;;2.60;;
44816;SDS011;30529;53.570;9.964;2023-07-02T13:38:48;5.70;;;2.00;;
44816;SDS011;30529;53.570;9.964;2023-07-02T13:41:13;6.60;;;1.60;;
44816;SDS011;30529;53.570;9.964;2023-07-02T13:43:39;5.73;;;2.20;;
44816;SDS011;30529;53.570;9.964;2023-07-02T13:46:05;6.37;;;1.90;;
44816;SDS011;30529;53.570;9.964;2023-07-02T13:48:31;3.10;;;1.63;;
44816;SDS011;30529;53.570;9.964;2023-07-02T13:50:57;4.20;;;1.40;;
44816;SDS011;30529;53.570;9.964;2023-07-02T13:53:23;6.50;;;1.80;;
44816;SDS011;30529;53.570;9.964;2023-07-02T13:55:49;5.20;;;1.97;;
44816;SDS011;30529;53.570;9.964;2023-07-02T13:58:15;5.70;;;2.10;;
44816;SDS011;30529;53.570;9.964;2023-07-02T14:00:41;5.93;;;2.07;;
44816;SDS011;30529;53.570;9.964;2023-07-02T14:03:07;4.70;;;1.60;;
44816;SDS011;30529;53.570;9.964;2023-07-02T14:05:33;5.90;;;2.00;;
44816;SDS011;30529;53.570;9.964;2023-07-02T14:07:59;7.17;;;2.13;;
44816;SDS011;30529;53.570;9.964;2023-07-02T14:10:25;6.93;;;2.70;;
44816;SDS011;30529;53.570;9.964;2023-07-02T14:12:53;9.80;;;4.53;;
44816;SDS011;30529;53.570;9.964;2023-07-02T14:15:19;8.63;;;3.20;;
44816;SDS011;30529;53.570;9.964;2023-07-02T14:17:45;6.07;;;2.10;;
44816;SDS011;30529;53.570;9.964;2023-07-02T14:20:11;7.07;;;2.90;;
44816;SDS011;30529;53.570;9.964;2023-07-02T14:22:37;5.17;;;2.13;;
44816;SDS011;30529;53.570;9.964;2023-07-02T14:25:04;4.77;;;1.83;;
44816;SDS011;30529;53.570;9.964;2023-07-02T14:27:30;6.80;;;2.20;;
44816;SDS011;30529;53.570;9.964;2023-07-02T14:29:56;8.00;;;2.10;;
44816;SDS011;30529;53.570;9.964;2023-07-02T14:32:22;6.90;;;2.30;;
44816;SDS011;30529;53.570;9.964;2023-07-02T14:34:48;4.77;;;2.10;;
44816;SDS011;30529;53.570;9.964;2023-07-02T14:37:14;6.20;;;1.97;;
44816;SDS011;30529;53.570;9.964;2023-07-02T14:39:40;4.57;;;1.80;;
44816;SDS011;30529;53.570;9.964;2023-07-02T14:42:06;6.33;;;1.97;;
44816;SDS011;30529;53.570;9.964;2023-07-02T14:44:33;5.57;;;1.90;;